sensor_id;sensor_type;location;lat;lon;timestamp;pressure;altitude;pressure_sealevel;temperature;humidity
11525;BME280;5819;49.648;8.330;2022-09-17T00:01:27;100063.19;;;10.98;92.66
11525;BME280;5819;49.648;8.330;2022-09-17T00:03:56;100068.34;;;10.80;91.72
11525;BME280;5819;49.648;8.330;2022-09-17T00:06:31;100073.53;;;10.80;92.70
11525;BME280;5819;49.648;8.330;2022-09-17T00:09:00;100074.81;;;10.72;93.95
11525;BME280;5819;49.648;8.330;2022-09-17T00:11:31;100060.22;;;10.69;93.92
11525;BME280;5819;49.648;8.330;2022-09-17T00:14:00;100070.88;;;10.63;93.54
11525;BME280;5819;49.648;8.330;2022-09-17T00:16:30;100071.69;;;10.65;93.52
11525;BME280;5819;49.648;8.330;2022-09-17T00:18:59;100068.00;;;10.69;94.22
11525;BME280;5819;49.648;8.330;2022-09-17T00:21:27;100071.94;;;10.59;93.22
11525;BME280;5819;49.648;8.330;2022-09-17T00:23:57;100073.59;;;10.62;95.39
11525;BME280;5819;49.648;8.330;2022-09-17T00:26:26;100076.19;;;10.62;94.92
11525;BME280;5819;49.648;8.330;2022-09-17T00:28:56;100071.19;;;10.57;94.90
11525;BME280;5819;49.648;8.330;2022-09-17T00:31:25;100074.16;;;10.50;95.05
11525;BME280;5819;49.648;8.330;2022-09-17T00:33:54;100068.53;;;10.40;96.97
11525;BME280;5819;49.648;8.330;2022-09-17T00:36:22;100068.72;;;10.36;98.61
11525;BME280;5819;49.648;8.330;2022-09-17T00:38:50;100066.13;;;10.36;98.27
11525;BME280;5819;49.648;8.330;2022-09-17T00:41:19;100065.31;;;10.35;97.67
11525;BME280;5819;49.648;8.330;2022-09-17T00:43:50;100062.72;;;10.35;97.62
11525;BME280;5819;49.648;8.330;2022-09-17T00:46:26;100067.28;;;10.30;99.32
11525;BME280;5819;49.648;8.330;2022-09-17T00:48:59;100066.28;;;10.32;97.96
11525;BME280;5819;49.648;8.330;2022-09-17T00:51:33;100066.50;;;10.28;99.53
11525;BME280;5819;49.648;8.330;2022-09-17T00:54:03;100067.19;;;10.31;99.58
11525;BME280;5819;49.648;8.330;2022-09-17T00:56:35;100063.88;;;10.28;99.21
11525;BME280;5819;49.648;8.330;2022-09-17T00:59:03;100074.59;;;10.22;98.48
11525;BME280;5819;49.648;8.330;2022-09-17T01:01:34;100074.59;;;10.22;100.00
11525;BME280;5819;49.648;8.330;2022-09-17T01:04:03;100076.34;;;10.21;99.96
11525;BME280;5819;49.648;8.330;2022-09-17T01:06:34;100073.09;;;10.16;100.00
11525;BME280;5819;49.648;8.330;2022-09-17T01:09:16;100074.91;;;10.14;100.00
11525;BME280;5819;49.648;8.330;2022-09-17T01:11:59;100070.16;;;10.04;100.00
11525;BME280;5819;49.648;8.330;2022-09-17T01:14:44;100069.31;;;10.03;100.00
11525;BME280;5819;49.648;8.330;2022-09-17T01:17:20;100075.69;;;9.96;100.00
11525;BME280;5819;49.648;8.330;2022-09-17T01:23:25;100062.28;;;9.86;100.00
11525;BME280;5819;49.648;8.330;2022-09-17T01:26:13;100072.69;;;9.86;100.00
11525;BME280;5819;49.648;8.330;2022-09-17T01:28:51;100072.44;;;9.91;100.00
11525;BME280;5819;49.648;8.330;2022-09-17T01:31:30;100066.84;;;10.00;100.00
11525;BME280;5819;49.648;8.330;2022-09-17T01:34:09;100070.25;;;10.02;100.00
11525;BME280;5819;49.648;8.330;2022-09-17T01:36:45;100069.19;;;10.06;100.00
11525;BME280;5819;49.648;8.330;2022-09-17T01:39:24;100069.00;;;10.11;99.29
11525;BME280;5819;49.648;8.330;2022-09-17T01:41:57;100065.25;;;10.18;99.05
11525;BME280;5819;49.648;8.330;2022-09-17T01:44:36;100063.59;;;10.15;97.87
11525;BME280;5819;49.648;8.330;2022-09-17T01:47:13;100077.38;;;10.17;97.22
11525;BME280;5819;49.648;8.330;2022-09-17T01:49:47;100076.97;;;10.26;97.31
11525;BME280;5819;49.648;8.330;2022-09-17T01:52:18;100079.69;;;10.23;97.02
11525;BME280;5819;49.648;8.330;2022-09-17T01:54:50;100078.94;;;10.21;97.35
11525;BME280;5819;49.648;8.330;2022-09-17T01:57:25;100082.69;;;10.14;96.99
11525;BME280;5819;49.648;8.330;2022-09-17T01:59:58;100084.78;;;10.06;98.05
11525;BME280;5819;49.648;8.330;2022-09-17T02:02:40;100078.81;;;10.04;98.90
11525;BME280;5819;49.648;8.330;2022-09-17T02:05:16;100088.84;;;9.93;100.00
11525;BME280;5819;49.648;8.330;2022-09-17T02:07:49;100085.72;;;9.85;100.00
11525;BME280;5819;49.648;8.330;2022-09-17T02:10:19;100097.94;;;9.83;100.00
11525;BME280;5819;49.648;8.330;2022-09-17T02:12:54;100099.09;;;9.96;100.00
11525;BME280;5819;49.648;8.330;2022-09-17T02:15:28;100092.44;;;9.91;100.00
11525;BME280;5819;49.648;8.330;2022-09-17T02:18:04;100103.72;;;9.90;100.00
11525;BME280;5819;49.648;8.330;2022-09-17T02:20:38;100100.84;;;9.96;100.00
11525;BME280;5819;49.648;8.330;2022-09-17T02:23:12;100101.19;;;9.88;100.00
11525;BME280;5819;49.648;8.330;2022-09-17T02:25:46;100103.63;;;9.91;100.00
11525;BME280;5819;49.648;8.330;2022-09-17T02:28:19;100105.09;;;9.78;100.00
11525;BME280;5819;49.648;8.330;2022-09-17T02:30:50;100103.34;;;9.78;100.00
11525;BME280;5819;49.648;8.330;2022-09-17T02:33:20;100107.56;;;9.81;100.00
11525;BME280;5819;49.648;8.330;2022-09-17T02:35:49;100105.09;;;9.78;100.00
11525;BME280;5819;49.648;8.330;2022-09-17T02:38:21;100101.72;;;9.76;100.00
11525;BME280;5819;49.648;8.330;2022-09-17T02:40:53;100105.94;;;9.78;100.00
11525;BME280;5819;49.648;8.330;2022-09-17T02:43:32;100099.81;;;9.79;100.00
11525;BME280;5819;49.648;8.330;2022-09-17T02:46:16;100085.53;;;9.90;100.00
11525;BME280;5819;49.648;8.330;2022-09-17T02:49:09;100091.13;;;9.80;100.00
11525;BME280;5819;49.648;8.330;2022-09-17T02:51:46;100088.72;;;9.76;100.00
11525;BME280;5819;49.648;8.330;2022-09-17T02:54:24;100090.34;;;9.78;100.00
11525;BME280;5819;49.648;8.330;2022-09-17T02:57:04;100102.41;;;9.79;100.00
11525;BME280;5819;49.648;8.330;2022-09-17T02:59:37;100107.69;;;9.78;100.00
11525;BME280;5819;49.648;8.330;2022-09-17T03:02:19;100099.91;;;9.78;100.00
11525;BME280;5819;49.648;8.330;2022-09-17T03:04:51;100095.81;;;9.72;100.00
11525;BME280;5819;49.648;8.330;2022-09-17T03:07:21;100095.75;;;9.74;100.00
11525;BME280;5819;49.648;8.330;2022-09-17T03:09:50;100095.13;;;9.87;100.00
11525;BME280;5819;49.648;8.330;2022-09-17T03:12:18;100090.28;;;9.80;100.00
11525;BME280;5819;49.648;8.330;2022-09-17T03:14:46;100100.66;;;9.80;100.00
11525;BME280;5819;49.648;8.330;2022-09-17T03:17:14;100096.25;;;9.82;100.00
11525;BME280;5819;49.648;8.330;2022-09-17T03:19:42;100102.06;;;9.87;100.00
11525;BME280;5819;49.648;8.330;2022-09-17T03:22:11;100095.44;;;10.00;100.00
11525;BME280;5819;49.648;8.330;2022-09-17T03:24:39;100099.09;;;9.96;100.00
11525;BME280;5819;49.648;8.330;2022-09-17T03:27:07;100097.09;;;10.03;100.00
11525;BME280;5819;49.648;8.330;2022-09-17T03:29:35;100096.03;;;10.07;100.00
11525;BME280;5819;49.648;8.330;2022-09-17T03:32:03;100097.78;;;10.06;100.00
11525;BME280;5819;49.648;8.330;2022-09-17T03:34:31;100091.41;;;10.13;100.00
11525;BME280;5819;49.648;8.330;2022-09-17T03:36:59;100092.31;;;10.12;100.00
11525;BME280;5819;49.648;8.330;2022-09-17T03:39:29;100100.09;;;10.12;100.00
11525;BME280;5819;49.648;8.330;2022-09-17T03:41:57;100102.00;;;10.09;100.00
11525;BME280;5819;49.648;8.330;2022-09-17T03:44:25;100101.00;;;10.11;100.00
11525;BME280;5819;49.648;8.330;2022-09-17T03:46:53;100101.69;;;10.16;100.00
11525;BME280;5819;49.648;8.330;2022-09-17T03:49:21;100101.13;;;10.28;99.39
11525;BME280;5819;49.648;8.330;2022-09-17T03:51:50;100103.19;;;10.22;99.15
11525;BME280;5819;49.648;8.330;2022-09-17T03:54:18;100100.72;;;10.19;100.00
11525;BME280;5819;49.648;8.330;2022-09-17T03:56:47;100101.69;;;10.16;100.00
11525;BME280;5819;49.648;8.330;2022-09-17T03:59:15;100099.72;;;10.21;100.00
11525;BME280;5819;49.648;8.330;2022-09-17T04:01:43;100105.84;;;10.20;99.84
11525;BME280;5819;49.648;8.330;2022-09-17T04:04:11;100100.63;;;10.20;100.00
11525;BME280;5819;49.648;8.330;2022-09-17T04:06:39;100104.94;;;10.21;100.00
11525;BME280;5819;49.648;8.330;2022-09-17T04:09:07;100106.41;;;10.27;99.52
11525;BME280;5819;49.648;8.330;2022-09-17T04:11:35;100104.88;;;10.23;100.00
11525;BME280;5819;49.648;8.330;2022-09-17T04:14:04;100107.03;;;10.32;98.19
11525;BME280;5819;49.648;8.330;2022-09-17T04:16:32;100109.72;;;10.30;99.00
11525;BME280;5819;49.648;8.330;2022-09-17T04:19:00;100110.56;;;10.31;98.21
11525;BME280;5819;49.648;8.330;2022-09-17T04:21:29;100113.28;;;10.28;97.41
11525;BME280;5819;49.648;8.330;2022-09-17T04:23:57;100112.16;;;10.33;97.73
11525;BME280;5819;49.648;8.330;2022-09-17T04:26:25;100107.97;;;10.31;97.48
11525;BME280;5819;49.648;8.330;2022-09-17T04:28:53;100110.56;;;10.31;96.24
11525;BME280;5819;49.648;8.330;2022-09-17T04:31:22;100110.56;;;10.31;98.35
11525;BME280;5819;49.648;8.330;2022-09-17T04:33:52;100102.78;;;10.31;97.52
11525;BME280;5819;49.648;8.330;2022-09-17T04:36:20;100105.13;;;10.36;98.71
11525;BME280;5819;49.648;8.330;2022-09-17T04:38:48;100115.69;;;10.32;98.41
11525;BME280;5819;49.648;8.330;2022-09-17T04:41:16;100115.78;;;10.31;98.03
11525;BME280;5819;49.648;8.330;2022-09-17T04:43:46;100116.72;;;10.28;97.99
11525;BME280;5819;49.648;8.330;2022-09-17T04:46:14;100128.81;;;10.29;97.51
11525;BME280;5819;49.648;8.330;2022-09-17T04:48:44;100131.72;;;10.42;96.96
11525;BME280;5819;49.648;8.330;2022-09-17T04:51:12;100130.88;;;10.42;97.05
11525;BME280;5819;49.648;8.330;2022-09-17T04:53:40;100131.63;;;10.44;97.80
11525;BME280;5819;49.648;8.330;2022-09-17T04:56:08;100127.22;;;10.46;97.25
11525;BME280;5819;49.648;8.330;2022-09-17T04:58:36;100140.22;;;10.46;96.12
11525;BME280;5819;49.648;8.330;2022-09-17T05:01:04;100132.13;;;10.52;95.51
11525;BME280;5819;49.648;8.330;2022-09-17T05:03:33;100130.47;;;10.51;95.93
11525;BME280;5819;49.648;8.330;2022-09-17T05:06:02;100137.47;;;10.49;96.02
11525;BME280;5819;49.648;8.330;2022-09-17T05:08:31;100137.53;;;10.47;96.52
11525;BME280;5819;49.648;8.330;2022-09-17T05:10:58;100137.31;;;10.52;96.73
11525;BME280;5819;49.648;8.330;2022-09-17T05:13:26;100127.78;;;10.52;97.26
11525;BME280;5819;49.648;8.330;2022-09-17T05:15:55;100130.78;;;10.43;97.75
11525;BME280;5819;49.648;8.330;2022-09-17T05:18:23;100134.94;;;10.47;97.89
11525;BME280;5819;49.648;8.330;2022-09-17T05:20:51;100145.56;;;10.43;97.91
11525;BME280;5819;49.648;8.330;2022-09-17T05:23:21;100142.88;;;10.44;98.06
11525;BME280;5819;49.648;8.330;2022-09-17T05:25:48;100139.63;;;10.39;98.53
11525;BME280;5819;49.648;8.330;2022-09-17T05:28:18;100137.81;;;10.41;99.72
11525;BME280;5819;49.648;8.330;2022-09-17T05:30:46;100142.03;;;10.44;98.34
11525;BME280;5819;49.648;8.330;2022-09-17T05:33:14;100140.72;;;10.54;99.48
11525;BME280;5819;49.648;8.330;2022-09-17T05:35:42;100144.44;;;10.48;100.00
11525;BME280;5819;49.648;8.330;2022-09-17T05:38:10;100151.19;;;10.52;100.00
11525;BME280;5819;49.648;8.330;2022-09-17T05:40:40;100153.03;;;10.50;99.69
11525;BME280;5819;49.648;8.330;2022-09-17T05:43:09;100149.44;;;10.53;99.78
11525;BME280;5819;49.648;8.330;2022-09-17T05:45:38;100157.56;;;10.64;99.81
11525;BME280;5819;49.648;8.330;2022-09-17T05:48:08;100154.91;;;10.65;99.43
11525;BME280;5819;49.648;8.330;2022-09-17T05:50:38;100156.53;;;10.68;98.28
11525;BME280;5819;49.648;8.330;2022-09-17T05:53:10;100159.50;;;10.79;98.65
11525;BME280;5819;49.648;8.330;2022-09-17T05:55:40;100168.22;;;10.78;97.47
11525;BME280;5819;49.648;8.330;2022-09-17T05:58:09;100174.97;;;10.82;99.50
11525;BME280;5819;49.648;8.330;2022-09-17T06:00:38;100181.13;;;10.79;98.73
11525;BME280;5819;49.648;8.330;2022-09-17T06:03:07;100185.44;;;10.80;98.49
11525;BME280;5819;49.648;8.330;2022-09-17T06:05:36;100182.56;;;10.87;98.03
11525;BME280;5819;49.648;8.330;2022-09-17T06:08:04;100183.53;;;10.84;98.41
11525;BME280;5819;49.648;8.330;2022-09-17T06:10:35;100189.56;;;10.85;98.00
11525;BME280;5819;49.648;8.330;2022-09-17T06:13:05;100185.06;;;10.88;97.92
11525;BME280;5819;49.648;8.330;2022-09-17T06:15:33;100180.81;;;10.87;97.96
11525;BME280;5819;49.648;8.330;2022-09-17T06:18:01;100184.47;;;10.83;97.56
11525;BME280;5819;49.648;8.330;2022-09-17T06:20:28;100191.41;;;10.83;98.46
11525;BME280;5819;49.648;8.330;2022-09-17T06:22:56;100188.63;;;10.87;99.16
11525;BME280;5819;49.648;8.330;2022-09-17T06:25:25;100187.97;;;10.82;99.30
11525;BME280;5819;49.648;8.330;2022-09-17T06:27:56;100189.78;;;10.80;98.28
11525;BME280;5819;49.648;8.330;2022-09-17T06:30:25;100187.81;;;10.85;98.32
11525;BME280;5819;49.648;8.330;2022-09-17T06:32:54;100196.25;;;10.90;98.59
11525;BME280;5819;49.648;8.330;2022-09-17T06:35:22;100192.47;;;10.97;97.46
11525;BME280;5819;49.648;8.330;2022-09-17T06:37:50;100196.19;;;11.10;98.01
11525;BME280;5819;49.648;8.330;2022-09-17T06:40:18;100188.28;;;11.31;96.33
11525;BME280;5819;49.648;8.330;2022-09-17T06:42:49;100184.28;;;11.41;94.10
11525;BME280;5819;49.648;8.330;2022-09-17T06:45:17;100185.13;;;11.41;94.31
11525;BME280;5819;49.648;8.330;2022-09-17T06:47:46;100201.47;;;11.45;93.77
11525;BME280;5819;49.648;8.330;2022-09-17T06:50:14;100201.31;;;11.48;93.26
11525;BME280;5819;49.648;8.330;2022-09-17T06:52:47;100204.06;;;11.45;93.06
11525;BME280;5819;49.648;8.330;2022-09-17T06:55:16;100193.66;;;11.45;93.49
11525;BME280;5819;49.648;8.330;2022-09-17T06:57:44;100196.50;;;11.57;93.77
11525;BME280;5819;49.648;8.330;2022-09-17T07:00:13;100191.81;;;11.47;93.69
11525;BME280;5819;49.648;8.330;2022-09-17T07:02:41;100186.63;;;11.47;93.54
11525;BME280;5819;49.648;8.330;2022-09-17T07:05:10;100180.34;;;11.51;93.82
11525;BME280;5819;49.648;8.330;2022-09-17T07:07:38;100189.47;;;11.59;91.85
11525;BME280;5819;49.648;8.330;2022-09-17T07:10:07;100178.78;;;11.64;91.76
11525;BME280;5819;49.648;8.330;2022-09-17T07:12:39;100180.50;;;11.65;92.48
11525;BME280;5819;49.648;8.330;2022-09-17T07:15:14;100188.03;;;11.71;92.32
11525;BME280;5819;49.648;8.330;2022-09-17T07:17:42;100176.63;;;11.73;93.42
11525;BME280;5819;49.648;8.330;2022-09-17T07:20:12;100182.22;;;11.83;91.26
11525;BME280;5819;49.648;8.330;2022-09-17T07:22:41;100192.41;;;12.05;90.64
11525;BME280;5819;49.648;8.330;2022-09-17T07:25:09;100188.06;;;12.21;87.54
11525;BME280;5819;49.648;8.330;2022-09-17T07:27:39;100191.88;;;12.15;87.49
11525;BME280;5819;49.648;8.330;2022-09-17T07:30:08;100188.41;;;12.15;87.96
11525;BME280;5819;49.648;8.330;2022-09-17T07:32:36;100195.06;;;12.20;87.38
11525;BME280;5819;49.648;8.330;2022-09-17T07:35:05;100181.63;;;12.28;86.73
11525;BME280;5819;49.648;8.330;2022-09-17T07:37:35;100196.97;;;12.34;86.49
11525;BME280;5819;49.648;8.330;2022-09-17T07:40:04;100202.00;;;12.37;86.64
11525;BME280;5819;49.648;8.330;2022-09-17T07:42:33;100200.34;;;12.52;87.39
11525;BME280;5819;49.648;8.330;2022-09-17T07:45:01;100200.06;;;12.58;87.11
11525;BME280;5819;49.648;8.330;2022-09-17T07:47:29;100206.78;;;12.62;87.39
11525;BME280;5819;49.648;8.330;2022-09-17T07:49:58;100203.28;;;12.79;85.14
11525;BME280;5819;49.648;8.330;2022-09-17T07:52:30;100201.28;;;12.84;82.95
11525;BME280;5819;49.648;8.330;2022-09-17T07:55:00;100209.59;;;12.90;83.55
11525;BME280;5819;49.648;8.330;2022-09-17T07:57:28;100201.31;;;13.15;82.37
11525;BME280;5819;49.648;8.330;2022-09-17T07:59:56;100208.63;;;13.24;81.88
11525;BME280;5819;49.648;8.330;2022-09-17T08:02:24;100212.75;;;13.12;81.58
11525;BME280;5819;49.648;8.330;2022-09-17T08:04:52;100202.97;;;13.16;81.63
11525;BME280;5819;49.648;8.330;2022-09-17T08:07:20;100202.16;;;13.31;81.11
11525;BME280;5819;49.648;8.330;2022-09-17T08:09:49;100204.22;;;13.56;80.27
11525;BME280;5819;49.648;8.330;2022-09-17T08:12:18;100204.78;;;13.61;80.75
11525;BME280;5819;49.648;8.330;2022-09-17T08:14:48;100199.91;;;13.55;79.94
11525;BME280;5819;49.648;8.330;2022-09-17T08:17:16;100206.13;;;13.52;80.42
11525;BME280;5819;49.648;8.330;2022-09-17T08:19:44;100193.00;;;13.54;80.70
11525;BME280;5819;49.648;8.330;2022-09-17T08:22:12;100204.28;;;13.54;77.84
11525;BME280;5819;49.648;8.330;2022-09-17T08:24:40;100212.16;;;13.39;79.12
11525;BME280;5819;49.648;8.330;2022-09-17T08:27:08;100205.31;;;13.36;78.82
11525;BME280;5819;49.648;8.330;2022-09-17T08:29:38;100196.38;;;13.40;80.82
11525;BME280;5819;49.648;8.330;2022-09-17T08:32:06;100201.31;;;13.31;79.04
11525;BME280;5819;49.648;8.330;2022-09-17T08:34:34;100202.47;;;13.25;79.44
11525;BME280;5819;49.648;8.330;2022-09-17T08:37:02;100201.56;;;13.72;79.90
11525;BME280;5819;49.648;8.330;2022-09-17T08:39:30;100204.66;;;13.78;76.84
11525;BME280;5819;49.648;8.330;2022-09-17T08:42:04;100210.94;;;13.90;76.00
11525;BME280;5819;49.648;8.330;2022-09-17T08:44:41;100205.19;;;14.13;76.50
11525;BME280;5819;49.648;8.330;2022-09-17T08:47:14;100205.03;;;14.30;75.68
11525;BME280;5819;49.648;8.330;2022-09-17T08:49:49;100217.59;;;13.95;75.61
11525;BME280;5819;49.648;8.330;2022-09-17T08:52:49;100224.53;;;14.11;74.66
11525;BME280;5819;49.648;8.330;2022-09-17T08:55:30;100236.63;;;13.83;76.28
11525;BME280;5819;49.648;8.330;2022-09-17T08:58:37;100234.59;;;13.73;76.29
11525;BME280;5819;49.648;8.330;2022-09-17T09:01:17;100228.06;;;13.95;76.38
11525;BME280;5819;49.648;8.330;2022-09-17T09:04:01;100227.66;;;13.87;76.88
11525;BME280;5819;49.648;8.330;2022-09-17T09:06:33;100221.09;;;14.10;75.07
11525;BME280;5819;49.648;8.330;2022-09-17T09:09:11;100220.94;;;14.27;72.86
11525;BME280;5819;49.648;8.330;2022-09-17T09:11:45;100210.41;;;14.57;73.07
11525;BME280;5819;49.648;8.330;2022-09-17T09:14:21;100220.22;;;14.53;71.95
11525;BME280;5819;49.648;8.330;2022-09-17T09:16:53;100216.59;;;14.56;71.03
11525;BME280;5819;49.648;8.330;2022-09-17T09:19:24;100209.38;;;14.74;73.74
11525;BME280;5819;49.648;8.330;2022-09-17T09:22:03;100208.50;;;15.02;73.84
11525;BME280;5819;49.648;8.330;2022-09-17T09:24:39;100211.31;;;14.98;70.66
11525;BME280;5819;49.648;8.330;2022-09-17T09:27:16;100218.16;;;14.87;72.12
11525;BME280;5819;49.648;8.330;2022-09-17T09:29:53;100213.78;;;14.87;70.40
11525;BME280;5819;49.648;8.330;2022-09-17T09:32:36;100204.50;;;14.96;72.08
11525;BME280;5819;49.648;8.330;2022-09-17T09:35:15;100213.97;;;14.84;68.67
11525;BME280;5819;49.648;8.330;2022-09-17T09:37:50;100214.81;;;14.71;68.30
11525;BME280;5819;49.648;8.330;2022-09-17T09:40:40;100220.88;;;14.57;70.61
11525;BME280;5819;49.648;8.330;2022-09-17T09:43:15;100222.00;;;14.67;70.00
11525;BME280;5819;49.648;8.330;2022-09-17T09:46:01;100222.28;;;14.63;70.46
11525;BME280;5819;49.648;8.330;2022-09-17T09:48:42;100217.59;;;14.53;71.51
11525;BME280;5819;49.648;8.330;2022-09-17T09:51:28;100214.03;;;14.40;72.56
11525;BME280;5819;49.648;8.330;2022-09-17T09:54:07;100216.34;;;14.31;77.12
11525;BME280;5819;49.648;8.330;2022-09-17T09:56:50;100230.81;;;14.22;78.67
11525;BME280;5819;49.648;8.330;2022-09-17T09:59:21;100220.41;;;14.79;75.78
11525;BME280;5819;49.648;8.330;2022-09-17T10:01:50;100218.78;;;15.05;74.90
11525;BME280;5819;49.648;8.330;2022-09-17T10:04:22;100231.16;;;15.29;72.02
11525;BME280;5819;49.648;8.330;2022-09-17T10:06:52;100221.69;;;15.55;72.01
11525;BME280;5819;49.648;8.330;2022-09-17T10:09:21;100213.56;;;15.72;71.36
11525;BME280;5819;49.648;8.330;2022-09-17T10:12:00;100207.34;;;15.73;67.03
11525;BME280;5819;49.648;8.330;2022-09-17T10:14:30;100203.72;;;15.76;70.79
11525;BME280;5819;49.648;8.330;2022-09-17T10:17:15;100197.97;;;15.96;67.51
11525;BME280;5819;49.648;8.330;2022-09-17T10:19:46;100192.81;;;15.95;67.51
11525;BME280;5819;49.648;8.330;2022-09-17T10:22:22;100197.88;;;15.58;68.81
11525;BME280;5819;49.648;8.330;2022-09-17T10:24:53;100198.59;;;15.33;68.58
11525;BME280;5819;49.648;8.330;2022-09-17T10:27:23;100198.22;;;15.39;66.71
11525;BME280;5819;49.648;8.330;2022-09-17T10:30:00;100203.94;;;15.32;67.75
11525;BME280;5819;49.648;8.330;2022-09-17T10:32:29;100213.66;;;15.44;64.42
11525;BME280;5819;49.648;8.330;2022-09-17T10:35:00;100209.34;;;15.43;65.50
11525;BME280;5819;49.648;8.330;2022-09-17T10:37:34;100201.25;;;15.46;65.25
11525;BME280;5819;49.648;8.330;2022-09-17T10:40:24;100210.75;;;15.08;68.17
11525;BME280;5819;49.648;8.330;2022-09-17T10:43:17;100212.53;;;15.07;65.72
11525;BME280;5819;49.648;8.330;2022-09-17T10:45:56;100211.94;;;15.16;66.94
11525;BME280;5819;49.648;8.330;2022-09-17T10:48:29;100218.47;;;15.23;65.49
11525;BME280;5819;49.648;8.330;2022-09-17T10:51:00;100222.28;;;15.32;65.74
11525;BME280;5819;49.648;8.330;2022-09-17T10:53:29;100227.91;;;15.26;65.41
11525;BME280;5819;49.648;8.330;2022-09-17T10:56:06;100225.25;;;15.40;63.06
11525;BME280;5819;49.648;8.330;2022-09-17T10:58:47;100225.75;;;15.32;63.00
11525;BME280;5819;49.648;8.330;2022-09-17T11:01:30;100219.13;;;15.27;65.02
11525;BME280;5819;49.648;8.330;2022-09-17T11:04:18;100224.13;;;15.44;61.78
11525;BME280;5819;49.648;8.330;2022-09-17T11:07:13;100220.91;;;15.53;61.22
11525;BME280;5819;49.648;8.330;2022-09-17T11:09:52;100223.00;;;15.48;62.04
11525;BME280;5819;49.648;8.330;2022-09-17T11:12:33;100211.75;;;15.60;62.07
11525;BME280;5819;49.648;8.330;2022-09-17T11:15:13;100207.25;;;15.75;62.78
11525;BME280;5819;49.648;8.330;2022-09-17T11:18:23;100206.16;;;15.65;60.71
11525;BME280;5819;49.648;8.330;2022-09-17T11:21:06;100214.63;;;15.82;59.47
11525;BME280;5819;49.648;8.330;2022-09-17T11:24:30;100211.94;;;15.97;60.88
11525;BME280;5819;49.648;8.330;2022-09-17T11:27:06;100205.09;;;15.94;59.38
11525;BME280;5819;49.648;8.330;2022-09-17T11:30:01;100203.09;;;15.98;60.44
11525;BME280;5819;49.648;8.330;2022-09-17T11:32:53;100199.97;;;16.30;64.08
11525;BME280;5819;49.648;8.330;2022-09-17T11:35:28;100190.84;;;16.36;62.79
11525;BME280;5819;49.648;8.330;2022-09-17T11:38:02;100187.38;;;16.73;62.20
11525;BME280;5819;49.648;8.330;2022-09-17T11:40:38;100195.47;;;16.58;61.77
11525;BME280;5819;49.648;8.330;2022-09-17T11:43:15;100181.47;;;16.82;61.93
11525;BME280;5819;49.648;8.330;2022-09-17T11:45:54;100187.03;;;16.78;61.24
11525;BME280;5819;49.648;8.330;2022-09-17T11:48:28;100177.31;;;16.67;63.82
11525;BME280;5819;49.648;8.330;2022-09-17T11:51:06;100191.47;;;16.27;62.77
11525;BME280;5819;49.648;8.330;2022-09-17T11:53:39;100183.47;;;16.41;60.52
11525;BME280;5819;49.648;8.330;2022-09-17T11:56:15;100176.47;;;16.67;60.57
11525;BME280;5819;49.648;8.330;2022-09-17T11:58:48;100183.50;;;16.66;61.29
11525;BME280;5819;49.648;8.330;2022-09-17T12:01:20;100178.47;;;17.36;59.39
11525;BME280;5819;49.648;8.330;2022-09-17T12:03:55;100167.66;;;17.75;57.25
11525;BME280;5819;49.648;8.330;2022-09-17T12:06:31;100160.19;;;18.27;56.49
11525;BME280;5819;49.648;8.330;2022-09-17T12:09:03;100155.78;;;18.49;55.27
11525;BME280;5819;49.648;8.330;2022-09-17T12:11:40;100153.03;;;18.51;56.08
11525;BME280;5819;49.648;8.330;2022-09-17T12:14:16;100140.56;;;18.86;56.21
11525;BME280;5819;49.648;8.330;2022-09-17T12:16:49;100142.69;;;18.03;59.98
11525;BME280;5819;49.648;8.330;2022-09-17T12:19:23;100143.00;;;17.76;57.54
11525;BME280;5819;49.648;8.330;2022-09-17T12:21:55;100131.56;;;17.89;58.95
11525;BME280;5819;49.648;8.330;2022-09-17T12:24:28;100144.38;;;18.04;60.19
11525;BME280;5819;49.648;8.330;2022-09-17T12:27:04;100135.75;;;17.91;58.65
11525;BME280;5819;49.648;8.330;2022-09-17T12:30:07;100138.63;;;18.21;55.90
11525;BME280;5819;49.648;8.330;2022-09-17T12:32:47;100140.22;;;18.35;56.05
11525;BME280;5819;49.648;8.330;2022-09-17T12:35:29;100135.56;;;17.70;58.46
11525;BME280;5819;49.648;8.330;2022-09-17T12:38:32;100137.38;;;17.22;61.37
11525;BME280;5819;49.648;8.330;2022-09-17T12:41:13;100141.50;;;17.38;59.50
11525;BME280;5819;49.648;8.330;2022-09-17T12:43:54;100130.81;;;17.75;57.78
11525;BME280;5819;49.648;8.330;2022-09-17T12:46:43;100153.63;;;18.32;55.26
11525;BME280;5819;49.648;8.330;2022-09-17T12:49:33;100141.28;;;18.21;56.20
11525;BME280;5819;49.648;8.330;2022-09-17T12:52:08;100134.09;;;18.35;56.91
11525;BME280;5819;49.648;8.330;2022-09-17T12:55:18;100122.00;;;18.10;55.93
11525;BME280;5819;49.648;8.330;2022-09-17T12:57:56;100127.94;;;17.44;55.79
11525;BME280;5819;49.648;8.330;2022-09-17T13:00:28;100134.03;;;17.44;57.92
11525;BME280;5819;49.648;8.330;2022-09-17T13:03:01;100130.13;;;18.07;57.56
11525;BME280;5819;49.648;8.330;2022-09-17T13:08:51;100131.25;;;18.71;54.79
11525;BME280;5819;49.648;8.330;2022-09-17T13:11:47;100127.84;;;17.91;54.15
11525;BME280;5819;49.648;8.330;2022-09-17T13:14:27;100127.16;;;18.22;53.74
11525;BME280;5819;49.648;8.330;2022-09-17T13:17:03;100120.91;;;18.90;55.57
11525;BME280;5819;49.648;8.330;2022-09-17T13:19:38;100124.75;;;18.97;54.79
11525;BME280;5819;49.648;8.330;2022-09-17T13:22:15;100123.19;;;18.84;55.46
11525;BME280;5819;49.648;8.330;2022-09-17T13:24:44;100123.50;;;17.68;55.75
11525;BME280;5819;49.648;8.330;2022-09-17T13:27:20;100113.38;;;17.27;57.11
11525;BME280;5819;49.648;8.330;2022-09-17T13:30:00;100116.78;;;17.64;58.27
11525;BME280;5819;49.648;8.330;2022-09-17T13:32:51;100118.91;;;18.05;57.26
11525;BME280;5819;49.648;8.330;2022-09-17T13:35:47;100112.56;;;18.18;54.40
11525;BME280;5819;49.648;8.330;2022-09-17T13:38:20;100108.19;;;18.95;52.70
11525;BME280;5819;49.648;8.330;2022-09-17T13:40:51;100114.53;;;19.04;52.42